Time;durP1;ratioP1;P1;durP2;ratioP2;P2;SDS_P1;SDS_P2;PMS_P1;PMS_P2;Temp;Humidity;BMP_temperature;BMP_pressure;BME280_temperature;BME280_humidity;BME280_pressure;Samples;Min_cycle;Max_cycle;Signal;HPM_P1;HPM_P2
2023/04/17 00:01:08;;;;;;;13.80;6.33;;;;;;;7.99;100.00;101766.19;5095508;28;20452;-66
2023/04/17 00:03:35;;;;;;;18.30;8.87;;;;;;;7.91;100.00;101759.34;5095345;28;20476;-66
2023/04/17 00:06:02;;;;;;;14.60;7.10;;;;;;;7.84;100.00;101770.34;5094886;28;20443;-66
2023/04/17 00:08:30;;;;;;;21.60;7.60;;;;;;;7.92;100.00;101766.34;5094594;28;20450;-66
2023/04/17 00:10:57;;;;;;;18.23;7.13;;;;;;;7.98;100.00;101765.38;5095247;28;20808;-66
2023/04/17 00:13:24;;;;;;;13.63;6.50;;;;;;;8.07;100.00;101774.63;5095246;28;20456;-66
2023/04/17 00:15:50;;;;;;;14.50;6.20;;;;;;;8.09;100.00;101767.06;5095192;28;20443;-66
2023/04/17 00:18:17;;;;;;;13.40;7.20;;;;;;;8.07;100.00;101766.53;5094825;28;20535;-66
2023/04/17 00:20:43;;;;;;;16.37;6.73;;;;;;;8.11;100.00;101768.72;5094680;28;20819;-66
2023/04/17 00:23:10;;;;;;;19.90;7.00;;;;;;;8.10;100.00;101765.19;5095048;28;20519;-66
2023/04/17 00:25:38;;;;;;;14.70;7.17;;;;;;;8.14;100.00;101766.31;5095284;28;20849;-66
2023/04/17 00:28:05;;;;;;;19.40;7.00;;;;;;;8.08;100.00;101768.16;5095031;28;20817;-67
2023/04/17 00:30:31;;;;;;;16.83;6.90;;;;;;;8.00;100.00;101768.59;5094695;28;20792;-65
2023/04/17 00:32:58;;;;;;;17.57;7.37;;;;;;;8.00;100.00;101768.59;5094556;28;20461;-66
2023/04/17 00:35:24;;;;;;;16.63;7.87;;;;;;;8.00;100.00;101768.59;5094605;28;20817;-65
2023/04/17 00:37:51;;;;;;;15.03;5.87;;;;;;;8.06;100.00;101769.50;5094509;28;20957;-66
2023/04/17 00:40:18;;;;;;;16.00;7.60;;;;;;;8.00;100.00;101765.09;5094796;28;20891;-66
2023/04/17 00:42:51;;;;;;;15.70;6.87;;;;;;;7.96;100.00;101772.06;5094569;28;20549;-65
2023/04/17 00:45:19;;;;;;;17.17;7.03;;;;;;;7.89;100.00;101774.16;5094297;28;20824;-66
2023/04/17 00:47:46;;;;;;;12.60;6.07;;;;;;;7.72;100.00;101775.06;5094305;28;20969;-66
2023/04/17 00:50:13;;;;;;;14.10;6.17;;;;;;;7.68;100.00;101773.94;5094490;28;20440;-67
2023/04/17 00:52:40;;;;;;;20.07;8.00;;;;;;;7.71;100.00;101773.44;5094510;28;20491;-69
2023/04/17 00:55:07;;;;;;;14.33;7.43;;;;;;;7.73;100.00;101773.97;5094182;28;20964;-69
2023/04/17 00:57:34;;;;;;;13.40;7.17;;;;;;;7.67;100.00;101772.31;5094387;28;20472;-67
2023/04/17 01:00:03;;;;;;;18.27;8.17;;;;;;;7.65;100.00;101768.22;5094125;28;20527;-66
2023/04/17 01:02:30;;;;;;;16.87;7.20;;;;;;;7.64;100.00;101769.28;5094310;28;20460;-66
2023/04/17 01:04:56;;;;;;;19.37;7.47;;;;;;;7.69;100.00;101780.94;5094196;28;20491;-66
2023/04/17 01:07:23;;;;;;;22.17;7.77;;;;;;;7.70;100.00;101776.38;5094232;28;20527;-66
2023/04/17 01:09:50;;;;;;;14.87;7.27;;;;;;;7.63;100.00;101778.47;5093874;28;20942;-66
2023/04/17 01:12:21;;;;;;;17.17;6.90;;;;;;;7.66;100.00;101777.94;5093811;28;20491;-66
2023/04/17 01:14:49;;;;;;;15.00;6.97;;;;;;;7.58;100.00;101771.94;5094212;28;20482;-66
2023/04/17 01:17:19;;;;;;;17.77;7.60;;;;;;;7.61;100.00;101780.56;5093978;28;20523;-66
2023/04/17 01:19:46;;;;;;;12.97;6.17;;;;;;;7.68;100.00;101775.81;5094179;28;20451;-66
2023/04/17 01:22:13;;;;;;;17.90;7.30;;;;;;;7.71;100.00;101773.44;5093917;28;20463;-66
2023/04/17 01:24:40;;;;;;;17.63;7.33;;;;;;;7.73;100.00;101773.97;5093903;28;20480;-65
2023/04/17 01:27:07;;;;;;;14.77;7.07;;;;;;;7.69;100.00;101778.25;5093924;28;20472;-66
2023/04/17 01:29:34;;;;;;;16.03;6.53;;;;;;;7.69;100.00;101775.56;5093549;28;21064;-66
2023/04/17 01:32:01;;;;;;;16.47;7.63;;;;;;;7.73;100.00;101786.66;5093489;28;21021;-66
2023/04/17 01:34:27;;;;;;;16.37;7.50;;;;;;;7.72;100.00;101775.06;5093751;28;20437;-66
2023/04/17 01:36:54;;;;;;;23.43;7.83;;;;;;;7.70;100.00;101774.50;5093752;28;20442;-66
2023/04/17 01:39:20;;;;;;;19.10;8.30;;;;;;;7.56;100.00;101773.25;5093437;28;20893;-66
2023/04/17 01:41:48;;;;;;;13.93;7.17;;;;;;;7.47;100.00;101777.44;5093532;28;20448;-66
2023/04/17 01:44:15;;;;;;;16.73;6.70;;;;;;;7.56;100.00;101774.06;5093394;28;20520;-66
2023/04/17 01:46:42;;;;;;;15.83;6.70;;;;;;;7.56;100.00;101778.63;5093345;28;20472;-66
2023/04/17 01:49:08;;;;;;;16.07;7.27;;;;;;;7.62;100.00;101774.94;5093231;28;20447;-66
2023/04/17 01:51:35;;;;;;;17.57;8.00;;;;;;;7.56;100.00;101778.63;5093487;28;20942;-66
2023/04/17 01:54:01;;;;;;;14.50;6.77;;;;;;;7.57;100.00;101777.59;5093083;28;20463;-66
2023/04/17 01:56:28;;;;;;;14.20;6.23;;;;;;;7.61;100.00;101781.38;5093177;28;20472;-66
2023/04/17 01:58:56;;;;;;;14.43;6.40;;;;;;;7.59;100.00;101781.66;5093453;28;20440;-65
2023/04/17 02:01:23;;;;;;;17.20;7.77;;;;;;;7.51;100.00;101787.47;5093461;28;20451;-66
2023/04/17 02:03:49;;;;;;;15.10;6.60;;;;;;;7.54;100.00;101778.09;5092968;28;20850;-65
2023/04/17 02:06:16;;;;;;;15.90;6.40;;;;;;;7.53;100.00;101787.25;5093350;28;20439;-66
2023/04/17 02:08:43;;;;;;;20.70;6.90;;;;;;;7.50;100.00;101783.16;5093060;28;20985;-65
2023/04/17 02:11:09;;;;;;;11.90;6.27;;;;;;;7.42;100.00;101788.97;5093308;28;20439;-65
2023/04/17 02:13:36;;;;;;;18.53;7.63;;;;;;;7.43;100.00;101784.41;5092866;28;20457;-65
2023/04/17 02:16:05;;;;;;;15.40;7.10;;;;;;;7.32;100.00;101792.34;5093216;28;20472;-65
2023/04/17 02:18:31;;;;;;;16.97;7.00;;;;;;;7.26;100.00;101785.28;5093221;28;20467;-66
2023/04/17 02:20:58;;;;;;;14.10;6.50;;;;;;;7.30;100.00;101788.28;5093211;28;20462;-65
2023/04/17 02:23:24;;;;;;;14.67;7.00;;;;;;;7.27;100.00;101792.28;5093020;28;20488;-65
2023/04/17 02:25:51;;;;;;;24.33;7.23;;;;;;;7.27;100.00;101792.28;5093092;28;20943;-66
2023/04/17 02:28:18;;;;;;;17.17;7.10;;;;;;;7.30;100.00;101799.91;5093140;28;20503;-65
2023/04/17 02:30:45;;;;;;;12.40;5.80;;;;;;;7.30;100.00;101801.75;5095332;28;20471;-65
2023/04/17 02:33:12;;;;;;;12.83;6.10;;;;;;;7.31;100.00;101798.81;5097112;28;20471;-65
2023/04/17 02:35:39;;;;;;;14.13;6.40;;;;;;;7.23;100.00;101791.16;5096912;28;20939;-66
2023/04/17 02:38:06;;;;;;;15.87;7.33;;;;;;;7.17;100.00;101791.31;5096869;28;20436;-66
2023/04/17 02:40:32;;;;;;;15.20;6.13;;;;;;;7.12;100.00;101789.38;5096727;28;20939;-66
2023/04/17 02:42:59;;;;;;;16.27;7.13;;;;;;;7.15;100.00;101793.47;5096964;28;20493;-66
2023/04/17 02:45:26;;;;;;;12.57;6.57;;;;;;;7.13;100.00;101788.34;5096579;28;20576;-66
2023/04/17 02:47:52;;;;;;;11.10;5.80;;;;;;;7.19;100.00;101792.72;5096968;28;20444;-66
2023/04/17 02:50:20;;;;;;;14.90;6.87;;;;;;;7.19;100.00;101790.03;5096859;28;20934;-65
2023/04/17 02:52:47;;;;;;;14.60;6.40;;;;;;;7.23;100.00;101798.44;5096498;28;20464;-66
2023/04/17 02:55:14;;;;;;;13.07;7.23;;;;;;;7.22;100.00;101799.50;5096833;28;20441;-66
2023/04/17 02:57:40;;;;;;;14.60;6.43;;;;;;;7.22;100.00;101803.00;5096823;28;20442;-65
2023/04/17 03:00:12;;;;;;;14.10;7.00;;;;;;;7.17;100.00;101811.03;5096410;28;20969;-66
2023/04/17 03:02:38;;;;;;;22.87;7.20;;;;;;;7.13;100.00;101801.81;5096353;28;20460;-66
2023/04/17 03:05:06;;;;;;;20.13;7.27;;;;;;;7.17;100.00;101802.94;5096321;28;20544;-65
2023/04/17 03:07:33;;;;;;;20.13;6.60;;;;;;;7.12;100.00;101807.41;5097589;28;20451;-68
2023/04/17 03:10:00;;;;;;;19.53;7.87;;;;;;;7.16;100.00;101803.97;5096529;28;20455;-69
2023/04/17 03:12:27;;;;;;;14.97;7.63;;;;;;;7.09;100.00;101806.06;5096407;28;20499;-68
2023/04/17 03:14:53;;;;;;;18.47;8.20;;;;;;;7.06;100.00;101811.94;5096425;28;20468;-68
2023/04/17 03:17:20;;;;;;;13.10;6.97;;;;;;;7.05;100.00;101802.22;5096125;28;20531;-68
2023/04/17 03:19:46;;;;;;;14.23;6.80;;;;;;;7.04;100.00;101806.78;5096342;28;20471;-68
2023/04/17 03:22:13;;;;;;;16.93;7.30;;;;;;;6.97;100.00;101813.41;5096229;28;20456;-68
2023/04/17 03:24:41;;;;;;;15.10;6.80;;;;;;;6.94;100.00;101819.28;5096191;28;21007;-68
2023/04/17 03:27:08;;;;;;;19.97;7.87;;;;;;;6.96;100.00;101817.16;5096202;28;20556;-68
2023/04/17 03:29:34;;;;;;;22.13;8.53;;;;;;;6.94;100.00;101812.00;5095868;28;20523;-68
2023/04/17 03:32:01;;;;;;;18.10;7.60;;;;;;;6.93;100.00;101828.44;5095717;28;20510;-68
2023/04/17 03:34:28;;;;;;;15.07;6.63;;;;;;;6.79;100.00;101823.38;5096085;28;20476;-68
2023/04/17 03:36:54;;;;;;;18.93;6.27;;;;;;;6.80;100.00;101833.06;5095993;28;20447;-67
2023/04/17 03:39:21;;;;;;;18.80;7.50;;;;;;;6.78;100.00;101832.50;5095679;28;20479;-68
2023/04/17 03:41:49;;;;;;;17.80;8.10;;;;;;;6.81;100.00;101834.69;5095396;28;20475;-68
2023/04/17 03:44:17;;;;;;;18.33;6.90;;;;;;;6.82;100.00;101833.66;5095545;28;20480;-68
2023/04/17 03:46:44;;;;;;;15.80;6.57;;;;;;;6.78;100.00;101831.72;5095870;28;20444;-67
2023/04/17 03:49:10;;;;;;;16.73;6.63;;;;;;;6.77;100.00;101836.28;5095815;28;20483;-68
2023/04/17 03:51:37;;;;;;;19.23;6.90;;;;;;;6.76;100.00;101833.81;5095699;28;20945;-68
2023/04/17 03:54:04;;;;;;;20.63;8.17;;;;;;;6.78;100.00;101831.72;5095416;28;20438;-68
2023/04/17 03:56:31;;;;;;;20.93;7.93;;;;;;;6.74;100.00;101836.75;5095707;28;20540;-68
2023/04/17 03:58:59;;;;;;;16.53;7.73;;;;;;;6.79;100.00;101834.13;5095305;28;20451;-67
2023/04/17 04:01:27;;;;;;;21.60;8.30;;;;;;;6.76;100.00;101829.22;5095615;28;20464;-68
2023/04/17 04:03:54;;;;;;;17.33;8.50;;;;;;;6.69;100.00;101839.38;5095597;28;20471;-68
2023/04/17 04:06:21;;;;;;;21.23;8.73;;;;;;;6.70;100.00;101842.88;5095462;28;20440;-67
2023/04/17 04:08:48;;;;;;;16.00;6.70;;;;;;;6.64;100.00;101847.38;5095434;28;20472;-68
2023/04/17 04:11:15;;;;;;;14.90;8.17;;;;;;;6.70;100.00;101842.88;5095397;28;20482;-67
2023/04/17 04:13:42;;;;;;;15.40;8.07;;;;;;;6.68;100.00;101848.47;5095284;28;20464;-68
2023/04/17 04:16:10;;;;;;;21.90;8.97;;;;;;;6.62;100.00;101854.03;5095025;28;20464;-68
2023/04/17 04:18:36;;;;;;;18.77;7.93;;;;;;;6.54;100.00;101856.06;5095093;28;21002;-68
2023/04/17 04:21:04;;;;;;;15.43;8.27;;;;;;;6.57;100.00;101852.06;5094906;28;21000;-68
2023/04/17 04:23:32;;;;;;;18.43;8.63;;;;;;;6.54;100.00;101853.38;5095139;28;20554;-68
2023/04/17 04:26:00;;;;;;;17.87;9.37;;;;;;;6.62;100.00;101854.03;5094999;28;20526;-68
2023/04/17 04:28:29;;;;;;;19.30;7.73;;;;;;;6.66;100.00;101866.78;5095058;28;20497;-69
2023/04/17 04:30:57;;;;;;;19.57;8.83;;;;;;;6.71;100.00;101868.72;5095033;28;20483;-68
2023/04/17 04:33:26;;;;;;;14.13;8.03;;;;;;;6.68;100.00;101869.22;5094881;28;20478;-68
2023/04/17 04:35:54;;;;;;;20.70;8.83;;;;;;;6.55;100.00;101862.25;5094894;28;20910;-68
2023/04/17 04:38:28;;;;;;;30.90;8.40;;;;;;;6.62;100.00;101860.25;5094809;28;20483;-68
2023/04/17 04:41:00;;;;;;;17.03;8.43;;;;;;;6.67;100.00;101863.00;5094447;28;20470;-68
2023/04/17 04:43:28;;;;;;;18.80;9.73;;;;;;;6.67;100.00;101859.50;5094525;28;20464;-68
2023/04/17 04:45:55;;;;;;;15.63;7.63;;;;;;;6.66;100.00;101866.78;5094523;28;20514;-68
2023/04/17 04:48:21;;;;;;;19.00;8.50;;;;;;;6.60;100.00;101865.06;5094344;28;20483;-68
2023/04/17 04:50:49;;;;;;;18.47;9.67;;;;;;;6.68;100.00;101867.31;5094592;28;20446;-67
2023/04/17 04:53:16;;;;;;;20.73;8.77;;;;;;;6.55;100.00;101873.03;5094069;28;20456;-72
2023/04/17 04:55:43;;;;;;;15.80;7.60;;;;;;;6.58;100.00;101875.25;5094754;28;20443;-71
2023/04/17 04:58:09;;;;;;;18.63;8.73;;;;;;;6.65;100.00;101877.78;5094171;28;20433;-68
2023/04/17 05:00:36;;;;;;;20.07;8.10;;;;;;;6.67;100.00;101871.09;5094048;28;20443;-68
2023/04/17 05:03:02;;;;;;;19.60;8.47;;;;;;;6.69;100.00;101871.69;5094284;28;20479;-67
2023/04/17 05:05:29;;;;;;;16.20;7.37;;;;;;;6.75;100.00;101878.78;5094242;28;20486;-67
2023/04/17 05:07:57;;;;;;;19.50;8.87;;;;;;;6.77;100.00;101883.91;5094279;28;20462;-67
2023/04/17 05:10:24;;;;;;;16.73;8.73;;;;;;;6.79;100.00;101885.31;5094401;28;20491;-67
2023/04/17 05:12:51;;;;;;;21.23;8.80;;;;;;;6.84;100.00;101887.28;5093710;28;21021;-67
2023/04/17 05:15:17;;;;;;;25.80;10.30;;;;;;;6.90;100.00;101880.09;5094098;28;20456;-67
2023/04/17 05:17:44;;;;;;;19.00;8.70;;;;;;;6.91;100.00;101889.81;5094105;28;20440;-67
2023/04/17 05:20:12;;;;;;;20.70;10.00;;;;;;;6.95;100.00;101891.78;5094096;28;20468;-67
2023/04/17 05:22:38;;;;;;;23.40;9.27;;;;;;;6.92;100.00;101891.44;5093982;28;20478;-67
2023/04/17 05:25:07;;;;;;;18.00;9.10;;;;;;;6.95;100.00;101899.84;5093985;28;20997;-67
2023/04/17 05:27:34;;;;;;;23.10;9.30;;;;;;;6.96;100.00;101897.97;5093871;28;20440;-67
2023/04/17 05:30:00;;;;;;;28.30;11.73;;;;;;;6.96;100.00;101904.19;5093846;28;20510;-67
2023/04/17 05:32:29;;;;;;;18.53;8.87;;;;;;;6.95;100.00;101907.09;5093711;28;20559;-67
2023/04/17 05:34:56;;;;;;;24.10;9.00;;;;;;;6.94;100.00;101911.66;5093599;28;20490;-67
2023/04/17 05:37:23;;;;;;;20.97;9.97;;;;;;;6.99;100.00;101908.25;5093457;28;20543;-67
2023/04/17 05:39:49;;;;;;;23.07;10.47;;;;;;;7.07;100.00;101899.75;5093720;28;20527;-68
2023/04/17 05:42:17;;;;;;;20.07;9.87;;;;;;;7.19;100.00;101907.78;5093564;28;20457;-68
2023/04/17 05:44:44;;;;;;;24.13;10.97;;;;;;;7.17;100.00;101910.72;5093307;28;20571;-68
2023/04/17 05:47:11;;;;;;;21.43;9.40;;;;;;;7.26;100.00;101911.94;5093604;28;20449;-68
2023/04/17 05:49:38;;;;;;;25.20;8.97;;;;;;;7.25;100.00;101923.75;5093508;28;20495;-68
2023/04/17 05:52:05;;;;;;;20.43;9.87;;;;;;;7.31;100.00;101928.19;5093671;28;20482;-69
2023/04/17 05:54:31;;;;;;;23.63;10.43;;;;;;;7.42;100.00;101921.06;5093556;28;20440;-68
2023/04/17 05:56:58;;;;;;;25.97;9.90;;;;;;;7.50;100.00;101919.84;5093465;28;20535;-68
2023/04/17 05:59:26;;;;;;;22.77;10.33;;;;;;;7.52;100.00;101929.28;5093629;28;20817;-68
2023/04/17 06:01:53;;;;;;;28.37;11.57;;;;;;;7.49;100.00;101932.50;5093462;28;20448;-68
2023/04/17 06:04:20;;;;;;;24.07;10.77;;;;;;;7.34;100.00;101932.25;5092541;28;20448;-68
2023/04/17 06:06:47;;;;;;;24.40;10.83;;;;;;;7.39;100.00;101926.94;5092998;28;20498;-68
2023/04/17 06:09:13;;;;;;;18.40;9.73;;;;;;;7.37;100.00;101926.38;5093320;28;20497;-68
2023/04/17 06:11:40;;;;;;;44.70;12.70;;;;;;;7.29;100.00;101930.28;5093261;28;20446;-68
2023/04/17 06:14:07;;;;;;;19.23;9.47;;;;;;;7.22;100.00;101929.66;5093374;28;20443;-68
2023/04/17 06:16:35;;;;;;;21.43;9.37;;;;;;;7.21;100.00;101932.56;5092993;28;20446;-68
2023/04/17 06:19:01;;;;;;;27.27;11.00;;;;;;;7.29;100.00;101933.00;5093246;28;20528;-68
2023/04/17 06:21:28;;;;;;;21.80;10.03;;;;;;;7.44;100.00;101937.81;5093220;28;20494;-68
2023/04/17 06:23:54;;;;;;;23.57;10.53;;;;;;;7.45;100.00;101934.06;5093086;28;20464;-68
2023/04/17 06:26:21;;;;;;;25.07;9.70;;;;;;;7.52;100.00;101944.66;5092904;28;20464;-68
2023/04/17 06:28:48;;;;;;;20.77;9.20;;;;;;;7.61;100.00;101943.16;5093084;28;20525;-68
2023/04/17 06:31:14;;;;;;;21.17;8.77;;;;;;;7.63;100.00;101941.06;5093094;28;20447;-68
2023/04/17 06:33:42;;;;;;;18.93;9.40;;;;;;;7.57;100.00;101948.25;5093002;28;20897;-68
2023/04/17 06:36:09;;;;;;;23.67;9.20;;;;;;;7.68;100.00;101945.69;5092635;28;20982;-67
2023/04/17 06:38:36;;;;;;;22.57;10.37;;;;;;;7.75;100.00;101949.88;5092721;28;20935;-68
2023/04/17 06:41:02;;;;;;;22.23;9.90;;;;;;;7.78;100.00;101953.94;5092736;28;20447;-67
2023/04/17 06:43:29;;;;;;;26.30;11.53;;;;;;;7.82;100.00;101947.78;5092760;28;20548;-68
2023/04/17 06:45:55;;;;;;;19.57;10.40;;;;;;;7.81;100.00;101948.06;5092959;28;20840;-68
2023/04/17 06:48:22;;;;;;;23.93;9.40;;;;;;;7.89;100.00;101955.72;5093250;28;20436;-68
2023/04/17 06:50:50;;;;;;;21.70;10.97;;;;;;;7.88;100.00;101953.25;5092940;28;20900;-68
2023/04/17 06:53:17;;;;;;;22.47;10.60;;;;;;;7.93;100.00;101958.75;5092920;28;20492;-68
2023/04/17 06:55:44;;;;;;;22.10;10.37;;;;;;;7.86;100.00;101955.41;5092883;28;20451;-68
2023/04/17 06:58:10;;;;;;;22.63;9.83;;;;;;;7.84;100.00;101963.75;5092912;28;20440;-68
2023/04/17 07:00:37;;;;;;;29.00;10.40;;;;;;;7.91;100.00;101966.25;5092778;28;20444;-68
2023/04/17 07:03:05;;;;;;;20.73;9.97;;;;;;;7.89;100.00;101958.41;5092820;28;20500;-71
2023/04/17 07:05:32;;;;;;;24.33;10.30;;;;;;;7.84;100.00;101964.56;5092654;28;20855;-72
2023/04/17 07:08:00;;;;;;;22.53;11.30;;;;;;;7.82;100.00;101966.66;5092762;28;20539;-66
2023/04/17 07:10:26;;;;;;;19.87;9.63;;;;;;;8.00;100.00;101972.84;5092731;28;20466;-66
2023/04/17 07:12:53;;;;;;;20.67;9.90;;;;;;;8.04;100.00;101974.81;5092627;28;20539;-66
2023/04/17 07:15:20;;;;;;;30.37;10.87;;;;;;;8.06;100.00;101977.25;5092752;28;20531;-66
2023/04/17 07:17:47;;;;;;;24.83;10.70;;;;;;;8.15;100.00;101973.06;5095973;28;20484;-66
2023/04/17 07:20:13;;;;;;;22.53;9.57;;;;;;;8.30;100.00;101972.44;5096123;28;20444;-67
2023/04/17 07:22:40;;;;;;;20.67;10.13;;;;;;;8.42;100.00;101978.56;5096048;28;20472;-66
2023/04/17 07:25:08;;;;;;;23.50;11.67;;;;;;;8.53;100.00;101977.59;5096242;28;20486;-66
2023/04/17 07:27:37;;;;;;;28.00;10.80;;;;;;;8.60;100.00;101982.81;5095850;28;20467;-66
2023/04/17 07:30:05;;;;;;;25.37;10.50;;;;;;;8.62;100.00;101980.66;5096213;28;20447;-67
2023/04/17 07:32:32;;;;;;;25.00;11.13;;;;;;;8.80;99.40;101983.00;5095863;28;20966;-66
2023/04/17 07:34:58;;;;;;;24.57;10.27;;;;;;;8.87;97.86;101984.72;5096093;28;20523;-66
2023/04/17 07:37:25;;;;;;;21.20;10.23;;;;;;;8.91;98.24;101980.44;5096086;28;20440;-66
2023/04/17 07:39:52;;;;;;;23.00;8.50;;;;;;;8.94;97.97;101979.91;5095810;28;20477;-67
2023/04/17 07:42:20;;;;;;;22.97;9.37;;;;;;;8.83;96.10;101992.50;5095554;28;20993;-67
2023/04/17 07:44:48;;;;;;;18.63;8.23;;;;;;;8.97;96.79;101990.22;5095696;28;20495;-70
2023/04/17 07:47:15;;;;;;;23.37;9.73;;;;;;;9.05;96.35;101992.47;5095556;28;20472;-71
2023/04/17 07:49:45;;;;;;;20.90;9.00;;;;;;;9.15;96.81;102000.66;5095798;28;20445;-67
2023/04/17 07:52:12;;;;;;;22.77;10.03;;;;;;;9.00;95.70;102005.94;5095697;28;20468;-67
2023/04/17 07:54:39;;;;;;;25.13;10.00;;;;;;;8.89;95.45;102007.69;5095488;28;20927;-68
2023/04/17 07:57:07;;;;;;;17.97;8.73;;;;;;;8.96;96.36;102002.91;5095697;28;20536;-67
2023/04/17 07:59:35;;;;;;;18.90;9.43;;;;;;;9.07;96.45;102003.81;5095657;28;20463;-67
2023/04/17 08:02:02;;;;;;;18.90;8.93;;;;;;;9.08;96.04;102006.28;5095232;28;20504;-67
2023/04/17 08:04:29;;;;;;;25.13;9.73;;;;;;;8.99;93.70;101998.91;5095505;28;20444;-67
2023/04/17 08:06:56;;;;;;;20.17;8.80;;;;;;;9.08;94.63;102003.59;5095317;28;20506;-67
2023/04/17 08:09:22;;;;;;;20.60;10.10;;;;;;;9.21;95.53;102006.91;5095440;28;20788;-67
2023/04/17 08:11:49;;;;;;;18.23;8.97;;;;;;;10.25;98.68;102013.66;5095293;28;20448;-67
2023/04/17 08:14:16;;;;;;;24.37;9.17;;;;;;;10.55;94.73;102013.78;5094962;28;20455;-67
2023/04/17 08:16:46;;;;;;;18.90;8.40;;;;;;;10.86;92.91;102020.09;5095263;28;20448;-67
2023/04/17 08:19:12;;;;;;;20.80;7.93;;;;;;;11.16;89.54;102017.72;5095308;28;20856;-67
2023/04/17 08:21:39;;;;;;;20.90;9.30;;;;;;;11.45;87.59;102013.38;5095492;28;20475;-67
2023/04/17 08:24:07;;;;;;;22.23;8.50;;;;;;;11.59;85.93;102021.78;5094829;28;20923;-67
2023/04/17 08:26:34;;;;;;;17.23;7.97;;;;;;;11.74;84.95;102031.84;5094819;28;20480;-67
2023/04/17 08:29:03;;;;;;;20.03;8.47;;;;;;;11.78;83.43;102035.66;5094096;28;20440;-67
2023/04/17 08:31:30;;;;;;;12.97;7.87;;;;;;;11.70;81.31;102030.75;5094729;28;20942;-67
2023/04/17 08:34:00;;;;;;;17.23;8.13;;;;;;;11.44;73.53;102038.09;5094556;28;20457;-67
2023/04/17 08:36:27;;;;;;;18.77;7.37;;;;;;;11.43;80.08;102047.31;5095020;28;20429;-67
2023/04/17 08:38:54;;;;;;;14.50;6.57;;;;;;;11.48;80.62;102041.88;5094718;28;20445;-68
2023/04/17 08:41:24;;;;;;;17.07;8.13;;;;;;;11.43;80.22;102034.56;5094477;28;20945;-67
2023/04/17 08:43:52;;;;;;;19.43;7.27;;;;;;;11.50;80.81;102047.84;5094674;28;20495;-67
2023/04/17 08:46:21;;;;;;;13.13;6.53;;;;;;;11.44;76.07;102051.66;5094710;28;20496;-67
2023/04/17 08:48:48;;;;;;;14.93;7.07;;;;;;;11.45;79.24;102037.00;5094557;28;20475;-67
2023/04/17 08:51:16;;;;;;;16.03;7.47;;;;;;;11.40;75.69;102037.00;5094640;28;20531;-67
2023/04/17 08:53:42;;;;;;;14.10;6.57;;;;;;;11.39;76.13;102040.81;5094414;28;20456;-67
2023/04/17 08:56:09;;;;;;;13.13;6.27;;;;;;;11.34;76.88;102042.44;5094771;28;20436;-67
2023/04/17 08:58:36;;;;;;;14.63;6.17;;;;;;;11.26;76.24;102048.38;5094490;28;20454;-69
2023/04/17 09:01:10;;;;;;;13.40;6.37;;;;;;;11.25;72.60;102041.34;5094429;28;20494;-66
2023/04/17 09:03:41;;;;;;;13.80;7.03;;;;;;;11.35;76.86;102044.03;5094321;28;20464;-67
2023/04/17 09:06:10;;;;;;;18.40;6.97;;;;;;;11.35;75.10;102048.66;5094205;28;20483;-67
2023/04/17 09:08:38;;;;;;;12.40;5.60;;;;;;;11.30;75.55;102052.19;5094245;28;20823;-67
2023/04/17 09:11:16;;;;;;;16.67;7.13;;;;;;;11.25;72.69;102043.22;5094302;28;20441;-67
2023/04/17 09:13:42;;;;;;;16.50;7.37;;;;;;;11.25;75.08;102046.75;5095640;28;20471;-67
2023/04/17 09:16:11;;;;;;;16.57;7.27;;;;;;;11.37;76.02;102043.75;5094129;28;20440;-67
2023/04/17 09:18:39;;;;;;;13.00;6.17;;;;;;;11.52;75.05;102040.25;5094066;28;20509;-67
2023/04/17 09:21:07;;;;;;;17.20;7.07;;;;;;;11.58;72.33;102047.31;5094031;28;20862;-67
2023/04/17 09:23:48;;;;;;;12.50;5.70;;;;;;;11.73;72.81;102051.91;5093938;28;20497;-67
2023/04/17 09:26:17;;;;;;;13.70;5.70;;;;;;;11.89;73.12;102047.31;5093668;28;20975;-67
2023/04/17 09:29:02;;;;;;;14.03;5.90;;;;;;;11.88;69.80;102045.69;5093970;28;20441;-67
2023/04/17 09:31:30;;;;;;;25.67;6.37;;;;;;;11.97;71.24;102039.44;5093814;28;20427;-67
2023/04/17 09:33:57;;;;;;;12.30;5.73;;;;;;;12.00;68.00;102054.38;5093724;28;20492;-67
2023/04/17 09:36:25;;;;;;;14.30;6.30;;;;;;;11.96;66.30;102051.41;5093829;28;20436;-67
2023/04/17 09:38:53;;;;;;;21.10;7.23;;;;;;;11.96;67.98;102053.28;5093330;28;20543;-67
2023/04/17 09:41:24;;;;;;;12.20;5.60;;;;;;;11.91;65.83;102047.84;5093677;28;20448;-67
2023/04/17 09:43:53;;;;;;;10.60;5.40;;;;;;;11.89;65.48;102047.31;5093310;28;20476;-67
2023/04/17 09:46:34;;;;;;;11.43;5.80;;;;;;;11.89;63.30;102044.59;5093276;28;20480;-67
2023/04/17 09:49:03;;;;;;;13.13;6.50;;;;;;;11.94;65.60;102056.28;5093574;28;20525;-67
2023/04/17 09:51:31;;;;;;;11.77;6.00;;;;;;;12.08;65.62;102048.38;5093210;28;20479;-67
2023/04/17 09:54:00;;;;;;;20.93;5.57;;;;;;;12.05;65.08;102051.66;5093307;28;20465;-67
2023/04/17 09:56:28;;;;;;;12.40;5.80;;;;;;;12.18;66.71;102039.41;5093515;28;20540;-67
2023/04/17 09:58:56;;;;;;;12.53;5.23;;;;;;;12.24;63.20;102054.59;5093391;28;20480;-67
2023/04/17 10:01:24;;;;;;;19.53;5.83;;;;;;;12.36;63.76;102058.63;5093468;28;20444;-67
2023/04/17 10:03:51;;;;;;;16.00;6.53;;;;;;;12.38;61.03;102055.63;5093288;28;20460;-67
2023/04/17 10:06:19;;;;;;;14.50;6.23;;;;;;;12.41;61.74;102054.28;5093022;28;20504;-67
2023/04/17 10:08:46;;;;;;;17.83;6.70;;;;;;;12.43;58.55;102057.50;5093477;28;20446;-67
2023/04/17 10:11:14;;;;;;;14.93;6.30;;;;;;;12.52;60.95;102055.84;5093238;28;20464;-67
2023/04/17 10:13:45;;;;;;;12.70;5.30;;;;;;;12.50;59.31;102058.03;5093207;28;20499;-67
2023/04/17 10:16:11;;;;;;;13.13;5.70;;;;;;;12.47;58.16;102061.31;5092983;28;20421;-68
2023/04/17 10:18:38;;;;;;;14.30;5.60;;;;;;;12.54;59.61;102050.97;5093202;28;20443;-67
2023/04/17 10:21:21;;;;;;;15.63;5.70;;;;;;;12.54;56.90;102059.94;5093165;28;20526;-67
2023/04/17 10:23:48;;;;;;;14.20;6.43;;;;;;;12.65;60.09;102049.00;5093086;28;20464;-67
2023/04/17 10:26:46;;;;;;;11.20;5.30;;;;;;;12.86;57.88;102051.34;5093033;28;21025;-68
2023/04/17 10:29:13;;;;;;;16.00;5.87;;;;;;;13.00;61.36;102046.09;5093153;28;20504;-67
2023/04/17 10:32:20;;;;;;;13.87;5.93;;;;;;;13.27;60.43;102047.59;5092933;28;20472;-68
2023/04/17 10:34:47;;;;;;;15.07;5.93;;;;;;;13.49;58.68;102041.72;5089490;28;20448;-68
2023/04/17 10:37:15;;;;;;;12.13;5.63;;;;;;;13.64;59.57;102044.31;5092672;28;21014;-68
2023/04/17 10:39:53;;;;;;;21.00;6.80;;;;;;;13.98;59.47;102043.44;5092695;28;20428;-68
2023/04/17 10:42:22;;;;;;;13.83;6.40;;;;;;;14.14;58.92;102053.09;5092825;28;20529;-68
2023/04/17 10:44:50;;;;;;;13.53;5.20;;;;;;;14.19;58.49;102044.84;5092594;28;20464;-70
2023/04/17 10:47:20;;;;;;;16.77;6.00;;;;;;;14.60;59.08;102050.66;5092431;28;20488;-68
2023/04/17 10:49:51;;;;;;;10.87;5.50;;;;;;;14.89;56.06;102052.50;5092647;28;20436;-68
2023/04/17 10:52:43;;;;;;;12.50;5.00;;;;;;;15.09;56.86;102044.00;5095777;28;20507;-70
2023/04/17 10:55:14;;;;;;;9.70;4.63;;;;;;;15.34;55.57;102042.00;5094600;28;20871;-69
2023/04/17 10:57:57;;;;;;;9.47;4.50;;;;;;;15.29;54.34;102047.53;5096888;28;20432;-69
2023/04/17 11:00:35;;;;;;;10.07;4.83;;;;;;;15.07;53.69;102039.94;5096759;28;20512;-69
2023/04/17 11:03:03;;;;;;;11.43;4.83;;;;;;;14.33;53.02;102044.97;5096292;28;20468;-69
2023/04/17 11:05:31;;;;;;;13.90;5.33;;;;;;;14.08;56.82;102046.09;5096349;28;20436;-70
2023/04/17 11:07:57;;;;;;;14.07;4.80;;;;;;;13.88;55.95;102047.88;5096441;28;20475;-69
2023/04/17 11:10:25;;;;;;;12.97;5.87;;;;;;;13.69;56.24;102036.09;5096217;28;20863;-70
2023/04/17 11:12:55;;;;;;;11.17;5.47;;;;;;;13.97;59.30;102034.47;5096356;28;20567;-67
2023/04/17 11:15:27;;;;;;;11.50;4.90;;;;;;;14.08;59.10;102046.09;5096337;28;20463;-68
2023/04/17 11:17:55;;;;;;;15.60;6.63;;;;;;;14.00;57.47;102060.31;5096369;28;20790;-68
2023/04/17 11:20:23;;;;;;;9.47;5.00;;;;;;;13.81;58.03;102060.22;5096326;28;20432;-68